Airfield :
LOGIN :

Register | Disclaimer

   EN    FR    IT 

 










Legend :    VFR   Marginal VFR   IFR   Intensive IFR   Very Intensive IFR
Visi :
Ceiling :
>= 8 km
>= 3000ft
5 to 8 km
1000 to 3000 ft
1500m to 5 km
500 to 1000 ft
800 to 1500m
200 to 500 ft
< 800m
< 200 ft
Symbols :   Thunderstorms  Fog  Heavy snow  Heavy precipitations  Wind > 20 kt
SIGMETs :     Misc.  Thunderstorms  Icing  Turbulence  Mountain Waves  Volcanic Ashes






- Airport Elevation : 14 ft
- IATA code : BRE


EDDW - Bremen Neuenland

CURRENT METAR :
  • 131650Z AUTO 22012KT 170V240 9999 SCT024 17/13 Q1011 TEMPO 25015G25KT

EXPIRED METARs :
  • 131620Z AUTO 23015KT 9999 VCSH SCT021 BKN026 BKN038 FEW///TCU 18/13 Q1011 TEMPO 25015G25KT SHRA BKN025CB
  • 131550Z AUTO 22010KT 9999 FEW027 19/14 Q1010 TEMPO SHRA BKN020CB
  • 131520Z AUTO 23009KT 9999 -SHRA FEW041 SCT///TCU 17/15 Q1010 RESHRA TEMPO SHRA
  • 131450Z AUTO 25017KT 9999 SHRA BKN027 BKN038 BKN049 FEW///CB 19/13 Q1010 TEMPO 27015G25KT NSW
  • 131420Z AUTO 22015KT 170V240 9999 SCT026 BKN035 BKN046 19/13 Q1010 TEMPO 23015G25KT SHRA BKN014CB
  • 131350Z AUTO 20015KT 180V240 9999 SCT023 BKN033 BKN041 19/13 Q1010 TEMPO 23015G25KT SHRA BKN014CB
  • 131320Z AUTO 21015KT 9999 BKN022 BKN028 OVC034 17/12 Q1010 TEMPO 23015G25KT
  • 131250Z AUTO 21014KT 180V240 9999 SCT021 BKN029 OVC033 17/13 Q1010 TEMPO 23015G25KT
  • 131220Z AUTO 22016KT 9999 BKN021 OVC029 17/13 Q1010 TEMPO 23015G25KT

TAF TAF EDDW
Valid from the 13 at 12:00 until the 14 at 12:00 UTC


131100Z 1312/1412 22012KT 9999 SCT030
PROB30
TEMPO 1312/1317 23015G25KT SHRA BKN011 BKN020CB
BECMG 1319/1321 19006KT
BECMG 1406/1408 21011KT
PROB30
TEMPO 1411/1412 SHRA BKN020CB



MET'MAP, your aeronautical weather chart ! - Copyright ORBIFLY December 2007 - Disclaimer

ORBIFLY MET'MAP TEAM :

Programming & Development : Alexandra Zaïnal
Original concept : Baudouin d'Aumeries
Technical & hardware support : Manuel Goepfert
Assistance : Marc-Olivier Méhu




SOURCES & CREDITS :

   NOAA